Time;durP1;ratioP1;P1;durP2;ratioP2;P2;SDS_P1;SDS_P2;PMS_P1;PMS_P2;Temp;Humidity;BMP_temperature;BMP_pressure;BME280_temperature;BME280_humidity;BME280_pressure;Samples;Min_cycle;Max_cycle;Signal;HPM_P1;HPM_P2
2021/03/30 00:01:13;;;;;;;21.02;10.52;;;7.50;84.70;;;;;;5025066;28;20049;-62
2021/03/30 00:03:44;;;;;;;17.02;10.55;;;7.60;85.30;;;;;;5024123;28;20693;-62
2021/03/30 00:06:10;;;;;;;18.73;11.43;;;7.70;85.50;;;;;;5024019;28;20521;-61
2021/03/30 00:08:36;;;;;;;17.50;11.60;;;7.80;84.60;;;;;;5024443;28;20073;-62
2021/03/30 00:11:03;;;;;;;17.83;10.65;;;7.90;84.70;;;;;;5025503;28;20045;-61
2021/03/30 00:13:32;;;;;;;18.33;12.25;;;7.90;84.00;;;;;;5025018;28;20056;-60
2021/03/30 00:16:00;;;;;;;16.80;10.70;;;7.80;83.90;;;;;;5022610;28;20053;-59
2021/03/30 00:18:29;;;;;;;21.45;11.18;;;7.70;83.60;;;;;;5024191;28;20163;-61
2021/03/30 00:20:56;;;;;;;20.80;11.05;;;7.70;83.90;;;;;;5026062;28;20532;-61
2021/03/30 00:23:22;;;;;;;19.50;11.60;;;7.70;84.00;;;;;;5023792;28;20052;-61
2021/03/30 00:25:50;;;;;;;17.40;11.48;;;7.60;84.70;;;;;;5022234;28;20061;-60
2021/03/30 00:28:16;;;;;;;23.80;12.43;;;7.60;84.00;;;;;;5024765;28;20510;-62
2021/03/30 00:30:42;;;;;;;19.60;11.10;;;7.60;84.50;;;;;;5023806;28;20060;-61
2021/03/30 00:33:11;;;;;;;20.27;12.25;;;7.60;84.30;;;;;;5024379;28;20056;-61
2021/03/30 00:35:38;;;;;;;19.98;13.68;;;7.60;84.40;;;;;;5022202;28;20053;-62
2021/03/30 00:38:04;;;;;;;19.52;11.77;;;7.60;84.40;;;;;;5012037;28;20049;-61
2021/03/30 00:40:30;;;;;;;18.30;12.65;;;7.70;84.30;;;;;;5025638;28;20399;-62
2021/03/30 00:42:56;;;;;;;20.35;11.85;;;7.70;84.10;;;;;;5024546;28;20107;-62
2021/03/30 00:45:25;;;;;;;18.17;13.00;;;7.70;83.90;;;;;;5024912;28;20187;-62
2021/03/30 00:47:57;;;;;;;20.38;11.55;;;7.70;84.00;;;;;;5022855;28;20505;-63
2021/03/30 00:50:33;;;;;;;16.95;12.88;;;7.90;82.80;;;;;;5024580;28;20073;-61
2021/03/30 00:53:05;;;;;;;18.73;12.38;;;8.00;82.40;;;;;;5012628;28;20049;-61
2021/03/30 00:55:34;;;;;;;17.38;13.23;;;8.10;81.90;;;;;;5028033;28;20551;-62
2021/03/30 00:57:59;;;;;;;17.42;12.65;;;8.20;81.50;;;;;;5024933;28;20144;-61
2021/03/30 01:00:25;;;;;;;21.05;13.15;;;8.20;80.80;;;;;;5023511;28;20152;-59
2021/03/30 01:02:56;;;;;;;16.98;12.07;;;8.30;80.30;;;;;;5025114;28;20081;-61
2021/03/30 01:05:24;;;;;;;13.77;11.52;;;8.40;79.80;;;;;;5023660;28;20569;-62
2021/03/30 01:08:37;;;;;;;17.42;11.73;;;8.50;79.40;;;;;;5031683;28;20079;-63
2021/03/30 01:11:20;;;;;;;18.92;11.13;;;8.50;78.60;;;;;;5015064;28;20058;-64
2021/03/30 01:14:08;;;;;;;17.40;12.10;;;8.60;78.40;;;;;;5025015;28;20053;-61
2021/03/30 01:16:48;;;;;;;19.10;11.88;;;8.60;78.10;;;;;;5010571;28;20045;-63
2021/03/30 01:20:04;;;;;;;15.15;11.43;;;8.60;77.80;;;;;;5024679;28;20073;-62
2021/03/30 01:22:45;;;;;;;14.25;11.57;;;8.70;76.60;;;;;;4942950;29;20447;-64
2021/03/30 01:25:12;;;;;;;16.52;11.80;;;8.80;76.30;;;;;;4938563;29;20056;-62
2021/03/30 01:27:43;;;;;;;17.77;12.15;;;8.80;76.20;;;;;;4943087;29;20051;-62
2021/03/30 01:30:10;;;;;;;19.15;10.48;;;9.00;75.50;;;;;;4949677;28;20142;-63
2021/03/30 01:32:50;;;;;;;17.55;11.27;;;8.90;75.40;;;;;;4946862;28;20079;-63
2021/03/30 01:35:22;;;;;;;18.95;10.43;;;8.90;75.40;;;;;;4933033;29;20059;-62
2021/03/30 01:37:49;;;;;;;16.55;11.38;;;8.90;75.60;;;;;;4948281;29;20070;-65
2021/03/30 01:40:22;;;;;;;16.30;10.50;;;8.90;75.20;;;;;;4947495;29;20066;-62
2021/03/30 01:42:49;;;;;;;15.77;10.38;;;9.00;74.70;;;;;;4946893;29;20440;-64
2021/03/30 01:45:20;;;;;;;18.35;11.30;;;9.00;75.00;;;;;;4946004;29;20054;-60
2021/03/30 01:47:49;;;;;;;15.93;10.50;;;8.90;74.80;;;;;;4947376;29;20078;-64
2021/03/30 01:50:17;;;;;;;18.83;10.68;;;9.00;74.50;;;;;;4954083;28;20051;-62
2021/03/30 01:52:44;;;;;;;15.07;10.23;;;9.00;74.50;;;;;;4947820;29;20102;-61
2021/03/30 01:55:14;;;;;;;15.57;9.90;;;8.90;74.40;;;;;;4945963;29;20063;-64
2021/03/30 01:57:51;;;;;;;15.60;10.05;;;8.90;74.20;;;;;;4946999;29;20063;-62
2021/03/30 02:00:18;;;;;;;14.82;10.05;;;8.90;74.40;;;;;;5027207;28;20064;-63
2021/03/30 02:02:45;;;;;;;13.88;9.40;;;8.90;74.40;;;;;;5028827;28;20132;-62
2021/03/30 02:05:18;;;;;;;16.52;10.02;;;8.80;74.50;;;;;;5034078;28;20099;-58
2021/03/30 02:07:46;;;;;;;15.13;9.45;;;8.80;74.30;;;;;;5029532;28;20041;-61
2021/03/30 02:10:30;;;;;;;14.13;9.07;;;8.80;74.60;;;;;;5028380;28;20053;-63
2021/03/30 02:12:59;;;;;;;17.35;10.07;;;8.80;74.20;;;;;;5028175;28;20564;-63
2021/03/30 02:15:29;;;;;;;13.02;9.70;;;8.80;74.20;;;;;;5028141;28;20144;-65
2021/03/30 02:18:09;;;;;;;16.65;10.35;;;8.70;74.40;;;;;;5028167;28;20510;-63
2021/03/30 02:20:45;;;;;;;17.13;10.07;;;8.70;74.60;;;;;;5027316;28;20848;-60
2021/03/30 02:23:18;;;;;;;16.83;10.48;;;8.60;74.70;;;;;;5026647;28;20056;-60
2021/03/30 02:25:47;;;;;;;14.63;9.65;;;8.60;74.70;;;;;;5009243;28;20601;-63
2021/03/30 02:28:17;;;;;;;16.88;11.10;;;8.60;74.80;;;;;;5027123;28;20042;-59
2021/03/30 02:30:46;;;;;;;16.98;10.25;;;8.60;74.80;;;;;;5032768;28;20060;-65
2021/03/30 02:33:22;;;;;;;13.07;9.65;;;8.50;74.70;;;;;;5027274;28;20045;-63
2021/03/30 02:35:55;;;;;;;15.98;9.75;;;8.50;74.80;;;;;;5027118;28;20504;-63
2021/03/30 02:38:24;;;;;;;15.32;9.85;;;8.50;74.80;;;;;;5000147;28;20379;-64
2021/03/30 02:40:53;;;;;;;16.45;11.40;;;8.40;74.80;;;;;;5026694;28;20061;-62
2021/03/30 02:43:21;;;;;;;12.40;9.73;;;8.10;75.70;;;;;;5026426;28;20072;-60
2021/03/30 02:45:51;;;;;;;16.30;10.23;;;7.90;76.60;;;;;;5012019;28;20076;-61
2021/03/30 02:48:17;;;;;;;16.55;10.57;;;7.80;77.30;;;;;;5034499;28;20041;-64
2021/03/30 02:50:44;;;;;;;15.20;10.15;;;7.60;77.60;;;;;;5027669;28;20049;-65
2021/03/30 02:53:11;;;;;;;13.77;10.52;;;7.50;77.90;;;;;;5026404;28;20136;-64
2021/03/30 02:55:41;;;;;;;15.27;9.20;;;7.50;77.90;;;;;;5026745;28;20056;-64
2021/03/30 02:58:08;;;;;;;17.10;10.38;;;7.50;77.70;;;;;;5026803;28;20096;-64
2021/03/30 03:00:38;;;;;;;14.50;10.90;;;7.50;77.60;;;;;;5027038;28;20095;-62
2021/03/30 03:03:09;;;;;;;14.25;9.80;;;7.50;77.70;;;;;;5027460;28;20164;-66
2021/03/30 03:05:35;;;;;;;16.88;11.63;;;7.40;78.20;;;;;;5026925;28;20045;-62
2021/03/30 03:08:03;;;;;;;14.98;11.23;;;7.30;78.50;;;;;;5026224;28;20110;-61
2021/03/30 03:10:30;;;;;;;14.23;11.23;;;7.20;78.90;;;;;;5025752;28;20064;-64
2021/03/30 03:13:04;;;;;;;16.85;11.68;;;7.10;79.00;;;;;;5026311;28;20053;-66
2021/03/30 03:15:30;;;;;;;16.90;12.18;;;7.00;79.40;;;;;;5027044;28;20054;-63
2021/03/30 03:17:58;;;;;;;15.95;12.68;;;7.00;79.50;;;;;;5025292;28;20055;-59
2021/03/30 03:20:25;;;;;;;16.38;10.70;;;6.90;79.60;;;;;;5025776;28;20592;-64
2021/03/30 03:22:52;;;;;;;17.27;11.25;;;6.90;79.90;;;;;;5025842;28;20410;-64
2021/03/30 03:25:22;;;;;;;17.90;11.98;;;6.90;80.00;;;;;;5026889;28;20709;-63
2021/03/30 03:27:48;;;;;;;18.48;12.63;;;6.80;80.30;;;;;;5025618;28;20072;-60
2021/03/30 03:30:18;;;;;;;19.00;11.68;;;6.80;80.90;;;;;;5026055;28;21683;-64
2021/03/30 03:32:44;;;;;;;18.33;12.98;;;6.70;80.90;;;;;;5026149;28;20103;-61
2021/03/30 03:35:13;;;;;;;16.10;12.35;;;6.60;81.00;;;;;;5029988;28;20822;-63
2021/03/30 03:37:47;;;;;;;18.73;12.00;;;6.60;81.00;;;;;;5024763;28;20052;-63
2021/03/30 03:40:16;;;;;;;16.23;11.32;;;6.60;81.50;;;;;;5026127;28;20613;-62
2021/03/30 03:42:42;;;;;;;18.58;11.77;;;6.50;81.70;;;;;;5026522;28;20061;-57
2021/03/30 03:45:10;;;;;;;17.95;12.20;;;6.40;82.20;;;;;;5007869;28;20109;-63
2021/03/30 03:47:47;;;;;;;16.48;13.18;;;6.40;82.80;;;;;;5025239;28;20060;-63
2021/03/30 03:50:14;;;;;;;20.05;12.73;;;6.30;82.40;;;;;;5028636;28;20047;-63
2021/03/30 03:52:55;;;;;;;16.45;11.80;;;6.20;82.10;;;;;;5024797;28;20130;-61
2021/03/30 03:55:22;;;;;;;19.00;13.07;;;6.30;82.20;;;;;;5023536;28;20050;-63
2021/03/30 03:57:55;;;;;;;19.92;12.75;;;6.20;82.10;;;;;;5024906;28;20087;-58
2021/03/30 04:00:25;;;;;;;18.80;13.00;;;6.20;82.20;;;;;;5025346;28;20080;-64
2021/03/30 04:02:56;;;;;;;16.60;12.48;;;6.20;82.40;;;;;;5025033;28;20054;-65
2021/03/30 04:05:31;;;;;;;16.98;12.43;;;6.20;82.30;;;;;;5025865;28;20056;-63
2021/03/30 04:08:03;;;;;;;16.27;11.82;;;6.10;82.70;;;;;;5024047;28;20049;-63
2021/03/30 04:10:32;;;;;;;18.73;11.63;;;6.10;82.70;;;;;;5025592;28;20042;-63
2021/03/30 04:12:59;;;;;;;15.63;12.10;;;6.00;82.50;;;;;;5025739;28;20053;-67
2021/03/30 04:15:29;;;;;;;16.52;12.45;;;6.00;82.50;;;;;;5024866;28;20056;-62
2021/03/30 04:17:54;;;;;;;19.48;13.90;;;5.90;83.10;;;;;;5024656;28;20049;-63
2021/03/30 04:20:21;;;;;;;17.33;13.30;;;5.90;83.30;;;;;;5013428;28;20050;-64
2021/03/30 04:22:59;;;;;;;19.83;13.50;;;5.90;83.10;;;;;;5025347;28;20064;-65
2021/03/30 04:25:26;;;;;;;19.08;12.77;;;5.90;83.30;;;;;;5017302;28;20141;-65
2021/03/30 04:27:53;;;;;;;19.50;13.38;;;5.90;83.20;;;;;;5024883;28;20077;-66
2021/03/30 04:30:26;;;;;;;18.65;13.48;;;5.90;83.40;;;;;;5024735;28;20053;-64
2021/03/30 04:32:52;;;;;;;18.45;12.70;;;5.90;83.70;;;;;;5024301;28;20118;-67
2021/03/30 04:35:21;;;;;;;16.58;13.25;;;5.70;83.40;;;;;;5024813;28;20053;-63
2021/03/30 04:37:49;;;;;;;20.17;12.73;;;5.70;83.90;;;;;;5023924;28;20058;-65
2021/03/30 04:40:18;;;;;;;18.40;13.65;;;5.60;84.50;;;;;;5026249;28;20057;-64
2021/03/30 04:42:50;;;;;;;17.35;13.52;;;5.60;84.40;;;;;;5024858;28;20147;-64
2021/03/30 04:45:16;;;;;;;16.08;12.98;;;5.60;84.40;;;;;;5024628;28;21048;-65
2021/03/30 04:47:42;;;;;;;18.08;13.57;;;5.50;84.50;;;;;;5023939;28;20516;-64
2021/03/30 04:50:08;;;;;;;17.50;13.13;;;5.40;84.70;;;;;;5024165;28;20057;-61
2021/03/30 04:52:36;;;;;;;19.25;13.98;;;5.40;85.00;;;;;;5026111;28;20053;-65
2021/03/30 04:55:04;;;;;;;16.95;14.05;;;5.40;84.70;;;;;;5025431;28;20075;-64
2021/03/30 04:57:35;;;;;;;17.13;13.90;;;5.40;84.70;;;;;;5023834;28;20183;-63
2021/03/30 05:00:04;;;;;;;22.08;15.45;;;5.30;84.80;;;;;;5023123;28;20458;-67
2021/03/30 05:02:33;;;;;;;21.70;14.77;;;5.40;84.90;;;;;;5023002;28;20060;-64
2021/03/30 05:05:01;;;;;;;19.63;14.35;;;5.40;85.00;;;;;;5023793;28;20057;-65
2021/03/30 05:07:27;;;;;;;24.48;16.17;;;5.40;85.10;;;;;;5024538;28;20045;-61
2021/03/30 05:09:59;;;;;;;24.60;14.68;;;5.40;85.30;;;;;;5024303;28;20140;-60
2021/03/30 05:12:27;;;;;;;19.35;15.40;;;5.40;85.40;;;;;;5023484;28;20054;-61
2021/03/30 05:14:55;;;;;;;22.05;15.73;;;5.40;86.50;;;;;;5024347;28;20111;-60
2021/03/30 05:17:21;;;;;;;19.60;14.45;;;5.40;87.10;;;;;;5009067;28;20115;-62
2021/03/30 05:19:50;;;;;;;28.17;16.45;;;5.40;87.80;;;;;;4963564;28;20414;-62
2021/03/30 05:22:18;;;;;;;21.17;15.80;;;5.40;88.00;;;;;;5011618;28;20037;-62
2021/03/30 05:24:47;;;;;;;21.02;15.65;;;5.30;87.30;;;;;;5022262;28;20049;-60
2021/03/30 05:27:13;;;;;;;23.02;15.10;;;5.20;87.70;;;;;;5023899;28;20776;-63
2021/03/30 05:29:45;;;;;;;18.15;14.70;;;5.10;87.70;;;;;;5022787;28;20056;-61
2021/03/30 05:32:16;;;;;;;20.70;14.60;;;5.10;87.50;;;;;;5022537;28;20186;-60
2021/03/30 05:34:46;;;;;;;19.30;14.65;;;5.10;87.20;;;;;;5022563;28;20045;-64
2021/03/30 05:37:15;;;;;;;21.13;15.60;;;5.10;87.20;;;;;;5022961;28;20049;-63
2021/03/30 05:39:41;;;;;;;21.55;14.73;;;5.10;87.00;;;;;;5019921;28;20056;-61
2021/03/30 05:42:14;;;;;;;22.55;15.18;;;5.10;87.30;;;;;;5022050;28;20514;-61
2021/03/30 05:44:42;;;;;;;20.92;14.10;;;5.10;87.30;;;;;;5029795;28;20060;-60
2021/03/30 05:49:40;;;;;;;20.98;14.20;;;5.10;87.20;;;;;;5021705;28;21300;-62
2021/03/30 05:52:27;;;;;;;21.48;15.52;;;5.10;87.40;;;;;;5021869;28;20512;-62
2021/03/30 05:54:57;;;;;;;23.42;15.00;;;5.20;87.50;;;;;;5035302;28;20123;-58
2021/03/30 05:57:28;;;;;;;18.05;14.18;;;5.30;88.30;;;;;;5018312;28;20037;-60
2021/03/30 05:59:59;;;;;;;21.65;14.18;;;5.40;87.80;;;;;;5034472;28;20584;-60
2021/03/30 06:02:45;;;;;;;21.17;14.25;;;5.40;87.90;;;;;;5029179;28;20437;-60
2021/03/30 06:05:17;;;;;;;18.55;13.40;;;5.40;87.60;;;;;;5033631;28;20402;-60
2021/03/30 06:07:43;;;;;;;19.10;13.15;;;5.50;87.60;;;;;;5032626;28;20050;-60
2021/03/30 06:10:15;;;;;;;18.05;13.95;;;5.70;87.80;;;;;;5041627;28;20417;-60
2021/03/30 06:12:41;;;;;;;19.23;14.32;;;5.70;87.70;;;;;;5038652;28;20060;-60
2021/03/30 06:15:11;;;;;;;20.30;13.68;;;5.80;87.20;;;;;;5034715;28;20042;-60
2021/03/30 06:17:48;;;;;;;29.60;23.23;;;6.00;87.00;;;;;;5031602;28;20050;-59
2021/03/30 06:20:35;;;;;;;17.90;14.02;;;6.10;86.60;;;;;;5025979;28;20156;-60
2021/03/30 06:23:04;;;;;;;22.50;15.95;;;6.10;85.80;;;;;;5025471;28;20051;-60
2021/03/30 06:25:50;;;;;;;20.77;14.98;;;6.30;86.00;;;;;;5029889;28;20100;-60
2021/03/30 06:28:28;;;;;;;22.05;15.82;;;6.40;85.60;;;;;;5023561;28;20050;-61
2021/03/30 06:31:11;;;;;;;16.77;12.98;;;6.60;84.90;;;;;;5026630;28;20163;-61
2021/03/30 06:33:52;;;;;;;18.10;13.27;;;6.70;85.20;;;;;;5024162;28;20048;-61
2021/03/30 06:36:27;;;;;;;16.67;13.13;;;7.00;85.40;;;;;;5032111;28;20091;-62
2021/03/30 06:39:07;;;;;;;18.55;13.02;;;7.30;85.10;;;;;;5028782;28;20037;-61
2021/03/30 06:47:03;;;;;;;26.40;18.40;;;8.40;82.70;;;;;;5026274;28;20223;-61
2021/03/30 06:49:35;;;;;;;35.45;27.42;;;8.80;81.60;;;;;;5027882;28;20045;-61
2021/03/30 06:52:19;;;;;;;15.77;12.32;;;9.10;81.90;;;;;;5032403;28;20808;-59
2021/03/30 06:54:57;;;;;;;20.77;13.13;;;9.40;77.20;;;;;;5021732;28;20045;-62
2021/03/30 06:57:49;;;;;;;14.90;11.10;;;9.70;78.90;;;;;;5035288;28;20397;-62
2021/03/30 07:00:29;;;;;;;16.55;10.98;;;10.10;73.60;;;;;;5014605;28;20510;-56
2021/03/30 07:03:04;;;;;;;17.80;13.02;;;10.60;74.30;;;;;;5025376;28;20045;-57
2021/03/30 07:05:37;;;;;;;17.25;14.75;;;11.10;75.80;;;;;;5025947;28;20148;-63
2021/03/30 07:08:16;;;;;;;17.63;12.95;;;11.70;73.40;;;;;;5024412;28;20418;-64
2021/03/30 07:10:50;;;;;;;16.38;11.25;;;12.10;69.90;;;;;;5029592;28;20049;-64
2021/03/30 07:13:18;;;;;;;16.08;11.73;;;12.60;69.20;;;;;;5025427;28;20045;-64
2021/03/30 07:15:44;;;;;;;17.58;13.60;;;13.00;68.60;;;;;;5026407;28;20057;-64
2021/03/30 07:18:35;;;;;;;23.60;17.15;;;13.30;66.40;;;;;;5025722;28;20040;-62
2021/03/30 07:21:22;;;;;;;17.95;13.82;;;13.60;65.20;;;;;;5027196;28;20057;-63
2021/03/30 07:23:58;;;;;;;17.05;11.98;;;13.80;64.40;;;;;;5019134;28;20387;-66
2021/03/30 07:26:49;;;;;;;16.95;11.20;;;14.00;60.20;;;;;;5014944;28;20073;-65
2021/03/30 07:29:17;;;;;;;16.77;10.45;;;14.10;54.60;;;;;;5022910;28;20128;-64
2021/03/30 07:31:46;;;;;;;14.30;11.10;;;14.40;57.40;;;;;;5024503;28;20052;-65
2021/03/30 07:34:22;;;;;;;12.50;10.02;;;14.60;57.10;;;;;;5026508;28;20049;-65
2021/03/30 07:36:54;;;;;;;13.18;9.75;;;15.00;56.60;;;;;;5026966;28;20057;-64
2021/03/30 07:39:23;;;;;;;14.05;9.95;;;15.30;55.40;;;;;;5023915;28;20072;-60
2021/03/30 07:41:52;;;;;;;14.27;12.02;;;15.20;53.90;;;;;;5023342;28;20136;-64
2021/03/30 07:44:19;;;;;;;15.93;11.18;;;15.70;55.40;;;;;;5023799;28;20401;-64
2021/03/30 07:46:46;;;;;;;15.93;11.05;;;16.00;53.30;;;;;;5025910;28;20053;-64
2021/03/30 07:49:12;;;;;;;15.18;10.13;;;15.80;52.50;;;;;;5025307;28;20177;-65
2021/03/30 07:51:45;;;;;;;16.90;11.27;;;15.90;51.30;;;;;;5025211;28;20053;-65
2021/03/30 07:54:14;;;;;;;14.88;10.77;;;16.00;52.80;;;;;;5030188;28;20679;-64
2021/03/30 07:56:40;;;;;;;16.48;12.38;;;16.30;53.20;;;;;;5026883;28;20066;-66
2021/03/30 07:59:06;;;;;;;14.43;10.25;;;16.90;52.90;;;;;;5033952;28;20044;-64
2021/03/30 08:01:34;;;;;;;16.20;11.30;;;17.20;52.30;;;;;;5034286;28;20052;-66
2021/03/30 08:04:01;;;;;;;14.18;9.93;;;17.20;52.10;;;;;;5029023;28;20050;-64
2021/03/30 08:06:31;;;;;;;14.95;9.18;;;17.10;50.00;;;;;;5027842;28;20243;-66
2021/03/30 08:09:09;;;;;;;15.00;9.45;;;17.20;50.90;;;;;;5035212;28;20540;-66
2021/03/30 08:11:44;;;;;;;25.60;22.48;;;17.10;49.50;;;;;;5027970;28;20045;-61
2021/03/30 08:14:21;;;;;;;24.63;15.95;;;17.00;49.10;;;;;;5033421;28;20045;-65
2021/03/30 08:16:50;;;;;;;14.88;9.70;;;16.90;48.90;;;;;;5034032;28;20052;-63
2021/03/30 08:19:16;;;;;;;17.38;11.57;;;17.10;49.10;;;;;;5026989;28;20042;-64
2021/03/30 08:22:01;;;;;;;16.50;8.90;;;17.10;49.10;;;;;;5028545;28;20481;-65
2021/03/30 08:24:49;;;;;;;15.70;10.57;;;17.80;47.80;;;;;;5029096;28;20107;-66
2021/03/30 08:27:37;;;;;;;16.35;9.80;;;18.10;46.80;;;;;;5010768;28;20052;-67
2021/03/30 08:30:26;;;;;;;14.07;9.05;;;18.50;45.80;;;;;;5024884;28;20050;-66
2021/03/30 08:32:53;;;;;;;13.60;9.38;;;18.70;45.10;;;;;;5037524;28;20048;-68
2021/03/30 08:35:28;;;;;;;16.77;12.45;;;18.70;45.80;;;;;;5027437;28;20506;-63
2021/03/30 08:37:57;;;;;;;12.85;9.20;;;18.50;43.40;;;;;;5043860;28;20409;-64
2021/03/30 08:40:35;;;;;;;13.82;10.88;;;18.50;46.50;;;;;;5028250;28;20187;-62
2021/03/30 08:43:21;;;;;;;14.27;10.27;;;18.40;42.10;;;;;;5022248;28;20085;-64
2021/03/30 08:46:06;;;;;;;13.88;10.35;;;18.20;44.00;;;;;;5024481;28;20127;-65
2021/03/30 08:48:49;;;;;;;12.57;9.27;;;18.50;45.20;;;;;;5029684;28;20045;-64
2021/03/30 08:51:17;;;;;;;15.80;9.73;;;18.60;43.60;;;;;;5030198;28;20037;-64
2021/03/30 08:53:47;;;;;;;19.10;10.98;;;18.60;44.40;;;;;;5028606;28;20081;-63
2021/03/30 08:56:13;;;;;;;14.70;10.38;;;18.70;44.20;;;;;;5033473;28;20139;-65
2021/03/30 08:58:44;;;;;;;15.43;10.50;;;19.20;43.30;;;;;;5031291;28;20768;-62
2021/03/30 09:01:12;;;;;;;11.77;9.73;;;19.10;41.90;;;;;;5023799;28;20061;-62
2021/03/30 09:03:38;;;;;;;24.33;17.40;;;19.30;43.40;;;;;;5022162;28;20465;-63
2021/03/30 09:06:05;;;;;;;16.77;13.45;;;19.40;42.90;;;;;;5026245;28;20064;-63
2021/03/30 09:08:43;;;;;;;18.90;13.25;;;19.30;42.50;;;;;;5024289;28;20072;-65
2021/03/30 09:11:20;;;;;;;11.15;9.02;;;19.30;41.00;;;;;;5023972;28;20505;-61
2021/03/30 09:14:06;;;;;;;19.08;13.32;;;19.40;43.50;;;;;;5025045;28;20210;-62
2021/03/30 09:16:33;;;;;;;17.00;10.60;;;20.20;41.90;;;;;;5017701;28;20478;-60
2021/03/30 09:19:31;;;;;;;16.52;9.57;;;20.20;43.50;;;;;;5030999;28;20049;-63
2021/03/30 09:22:02;;;;;;;13.20;9.13;;;20.50;40.60;;;;;;5024322;28;20490;-61
2021/03/30 09:24:37;;;;;;;;;;;20.70;42.80;;;;;;5026308;28;20049;-65
2021/03/30 09:27:11;;;;;;;17.83;10.55;;;19.90;41.10;;;;;;5024761;28;19975;-65
2021/03/30 09:29:37;;;;;;;15.65;10.48;;;20.50;41.30;;;;;;5006636;28;20081;-60
2021/03/30 09:32:06;;;;;;;18.33;10.32;;;20.60;41.80;;;;;;5024165;28;20058;-62
2021/03/30 09:34:43;;;;;;;16.98;10.00;;;20.80;41.50;;;;;;5025606;28;20103;-66
2021/03/30 09:37:09;;;;;;;12.25;9.70;;;20.80;42.10;;;;;;5025372;28;20103;-62
2021/03/30 09:39:36;;;;;;;14.02;10.27;;;20.80;41.50;;;;;;5025877;28;20045;-65
2021/03/30 09:42:04;;;;;;;14.27;8.70;;;21.60;41.30;;;;;;5026119;28;20045;-68
2021/03/30 09:44:43;;;;;;;15.18;10.85;;;21.40;41.70;;;;;;5018105;28;20057;-68
2021/03/30 09:47:15;;;;;;;14.75;9.90;;;21.60;40.50;;;;;;5028390;28;20490;-67
2021/03/30 09:49:42;;;;;;;15.02;9.05;;;21.90;39.80;;;;;;5023793;28;20053;-67
2021/03/30 09:52:08;;;;;;;13.63;8.43;;;22.40;40.40;;;;;;5030708;28;20068;-65
2021/03/30 09:54:42;;;;;;;12.27;8.35;;;22.60;39.50;;;;;;5030300;28;20064;-65
2021/03/30 09:57:23;;;;;;;14.85;9.23;;;22.30;38.40;;;;;;5033074;28;20120;-66
2021/03/30 09:59:50;;;;;;;13.02;7.82;;;22.70;38.80;;;;;;5030686;28;20520;-65
2021/03/30 10:02:26;;;;;;;11.60;7.63;;;22.80;38.20;;;;;;5021842;28;20596;-66
2021/03/30 10:05:12;;;;;;;10.52;6.70;;;22.80;38.40;;;;;;5029221;28;20053;-66
2021/03/30 10:07:40;;;;;;;11.90;7.20;;;22.60;37.70;;;;;;5029135;28;20049;-64
2021/03/30 10:10:07;;;;;;;13.30;6.57;;;23.50;38.20;;;;;;5029657;28;20052;-64
2021/03/30 10:12:53;;;;;;;17.70;8.38;;;23.80;37.10;;;;;;5028935;28;20053;-66
2021/03/30 10:15:40;;;;;;;12.68;6.70;;;23.10;35.80;;;;;;5031123;28;20126;-65
2021/03/30 10:18:09;;;;;;;15.80;7.65;;;23.30;37.10;;;;;;5028836;28;20510;-62
2021/03/30 10:20:48;;;;;;;11.65;6.57;;;23.00;34.60;;;;;;5034329;28;20048;-65
2021/03/30 10:23:20;;;;;;;13.07;6.70;;;23.30;34.60;;;;;;5025767;28;20046;-62
2021/03/30 10:25:48;;;;;;;13.98;6.70;;;23.40;35.20;;;;;;5028133;28;20505;-63
2021/03/30 10:28:28;;;;;;;13.40;6.85;;;23.20;35.50;;;;;;5029118;28;20129;-61
2021/03/30 10:31:03;;;;;;;11.25;6.78;;;23.20;34.00;;;;;;5029470;28;20080;-60
2021/03/30 10:33:41;;;;;;;11.25;6.88;;;23.10;34.30;;;;;;5027164;28;20053;-62
2021/03/30 10:36:15;;;;;;;11.88;6.88;;;23.30;34.50;;;;;;5028561;28;20045;-62
2021/03/30 10:39:05;;;;;;;15.90;9.45;;;23.80;35.00;;;;;;5028000;28;20049;-60
2021/03/30 10:41:42;;;;;;;16.60;10.13;;;23.70;32.60;;;;;;5027367;28;20111;-58
2021/03/30 10:44:20;;;;;;;12.60;9.90;;;24.20;32.20;;;;;;5027366;28;20071;-60
2021/03/30 10:46:49;;;;;;;14.25;8.15;;;24.10;32.20;;;;;;5028290;28;20433;-59
2021/03/30 10:49:16;;;;;;;10.77;7.53;;;23.90;32.00;;;;;;5028636;28;20764;-59
2021/03/30 10:51:46;;;;;;;10.60;6.40;;;24.20;32.30;;;;;;5028984;28;20561;-61
2021/03/30 10:54:15;;;;;;;11.73;6.75;;;23.80;32.10;;;;;;5028059;28;20160;-60
2021/03/30 10:56:44;;;;;;;11.25;8.80;;;24.00;32.00;;;;;;5028431;28;20053;-59
2021/03/30 10:59:15;;;;;;;10.63;6.97;;;24.50;32.80;;;;;;5028735;28;20057;-59
2021/03/30 11:01:41;;;;;;;8.98;6.50;;;25.10;31.70;;;;;;5027296;28;20057;-59
2021/03/30 11:04:10;;;;;;;10.32;6.95;;;25.40;31.10;;;;;;5026252;28;20041;-59
2021/03/30 11:06:41;;;;;;;10.20;7.43;;;25.10;31.90;;;;;;5027575;28;20046;-59
2021/03/30 11:09:07;;;;;;;11.65;6.78;;;25.20;31.00;;;;;;5027654;28;20049;-59
2021/03/30 11:11:33;;;;;;;12.23;6.68;;;25.90;29.90;;;;;;5026468;28;20053;-60
2021/03/30 11:14:05;;;;;;;9.77;6.60;;;25.30;28.90;;;;;;5027027;28;20382;-61
2021/03/30 11:16:34;;;;;;;13.65;7.78;;;25.00;30.10;;;;;;5018114;28;20046;-61
2021/03/30 11:19:00;;;;;;;11.38;7.80;;;25.20;30.50;;;;;;5025509;28;20061;-61
2021/03/30 11:21:26;;;;;;;10.77;6.13;;;24.90;30.60;;;;;;5028012;28;20050;-61
2021/03/30 11:24:01;;;;;;;10.63;6.32;;;25.80;30.10;;;;;;5026598;28;20449;-61
2021/03/30 11:26:28;;;;;;;10.88;7.53;;;26.20;29.40;;;;;;5028293;28;20128;-61
2021/03/30 11:28:55;;;;;;;10.13;6.10;;;26.00;29.70;;;;;;5028477;28;20528;-60
2021/03/30 11:34:19;;;;;;;8.55;6.68;;;25.70;29.20;;;;;;5026264;28;20517;-60
2021/03/30 11:36:52;;;;;;;10.88;6.63;;;26.20;30.80;;;;;;5027693;28;20521;-61
2021/03/30 11:39:26;;;;;;;11.20;6.38;;;26.60;30.20;;;;;;5035265;28;20121;-60
2021/03/30 11:41:52;;;;;;;10.63;5.70;;;26.80;29.80;;;;;;5028657;28;20418;-60
2021/03/30 11:44:19;;;;;;;9.02;5.78;;;27.30;28.50;;;;;;5027512;28;20049;-60
2021/03/30 11:46:45;;;;;;;9.05;6.65;;;27.00;28.30;;;;;;5028001;28;20084;-60
2021/03/30 11:49:11;;;;;;;8.95;6.20;;;26.70;28.30;;;;;;5027732;28;20429;-60
2021/03/30 11:51:37;;;;;;;8.55;5.28;;;27.10;28.40;;;;;;5028078;28;20046;-59
2021/03/30 11:54:10;;;;;;;10.32;5.78;;;27.10;27.90;;;;;;5026125;28;20571;-60
2021/03/30 11:56:40;;;;;;;8.48;5.47;;;26.90;28.40;;;;;;5027933;28;20057;-60
2021/03/30 11:59:06;;;;;;;9.10;5.53;;;26.70;27.70;;;;;;5027966;28;20099;-60
2021/03/30 12:01:33;;;;;;;9.32;5.82;;;26.60;28.30;;;;;;5027378;28;20049;-60
2021/03/30 12:04:02;;;;;;;9.93;5.78;;;26.80;27.70;;;;;;5027281;28;20045;-59
2021/03/30 12:06:28;;;;;;;9.20;6.22;;;26.70;27.80;;;;;;5026712;28;20048;-61
2021/03/30 12:08:54;;;;;;;10.15;5.05;;;26.40;22.80;;;;;;5027001;28;20053;-56
2021/03/30 12:11:20;;;;;;;9.07;6.60;;;26.40;23.90;;;;;;5029273;28;20203;-60
2021/03/30 12:13:46;;;;;;;10.35;6.15;;;26.50;25.30;;;;;;5024483;28;20052;-66
2021/03/30 12:16:12;;;;;;;8.75;5.82;;;26.60;25.70;;;;;;5033412;28;20064;-61
2021/03/30 12:18:38;;;;;;;9.13;5.28;;;26.50;24.50;;;;;;5033362;28;20060;-54
2021/03/30 12:21:04;;;;;;;10.50;5.40;;;26.40;25.00;;;;;;5025448;28;20154;-57
2021/03/30 12:23:30;;;;;;;7.35;4.63;;;26.20;25.20;;;;;;5028016;28;20045;-61
2021/03/30 12:25:58;;;;;;;6.80;4.38;;;26.70;25.70;;;;;;5023343;28;20056;-61
2021/03/30 12:28:24;;;;;;;8.65;4.30;;;26.80;24.30;;;;;;5029708;28;20038;-53
2021/03/30 12:30:52;;;;;;;6.80;4.22;;;26.90;24.50;;;;;;5024583;28;20538;-61
2021/03/30 12:33:18;;;;;;;8.48;4.53;;;26.80;24.80;;;;;;5024487;28;20195;-61
2021/03/30 12:35:44;;;;;;;6.47;3.55;;;27.50;24.80;;;;;;5025189;28;20118;-56
2021/03/30 12:38:11;;;;;;;6.22;3.97;;;27.40;24.50;;;;;;5024360;28;20877;-54
2021/03/30 12:40:37;;;;;;;7.15;3.72;;;26.90;22.80;;;;;;5024232;28;20486;-56
2021/03/30 12:43:04;;;;;;;6.88;4.03;;;26.50;23.00;;;;;;5026069;28;20184;-59
2021/03/30 12:45:34;;;;;;;7.18;4.15;;;26.10;23.30;;;;;;5027125;28;20118;-58
2021/03/30 12:48:02;;;;;;;7.85;4.25;;;26.40;24.10;;;;;;5025883;28;20152;-55
2021/03/30 12:50:31;;;;;;;5.85;3.55;;;26.60;23.20;;;;;;5026800;28;20041;-59
2021/03/30 12:52:57;;;;;;;6.68;4.03;;;26.60;24.30;;;;;;5026261;28;20041;-57
2021/03/30 12:55:24;;;;;;;6.88;4.25;;;27.30;23.00;;;;;;5026459;28;20045;-59
2021/03/30 12:57:51;;;;;;;9.90;4.72;;;27.30;23.90;;;;;;5027214;28;20407;-57
2021/03/30 13:00:20;;;;;;;5.97;4.00;;;27.70;23.60;;;;;;5036165;28;20053;-55
2021/03/30 13:02:46;;;;;;;7.72;6.00;;;28.00;23.30;;;;;;5026833;28;20045;-57
2021/03/30 13:05:12;;;;;;;7.20;4.93;;;27.40;23.70;;;;;;5024025;28;20046;-59
2021/03/30 13:07:39;;;;;;;6.28;4.78;;;27.30;23.30;;;;;;5024267;28;20053;-54
2021/03/30 13:10:06;;;;;;;7.18;4.65;;;27.10;22.90;;;;;;5025645;28;20042;-56